sensor_id;sensor_type;location;lat;lon;timestamp;temperature;humidity
6407;DHT22;3236;51.022;6.818;2022-08-19T00:01:27;19.20;99.90
6407;DHT22;3236;51.022;6.818;2022-08-19T00:03:54;19.20;99.90
6407;DHT22;3236;51.022;6.818;2022-08-19T00:08:52;19.00;99.90
6407;DHT22;3236;51.022;6.818;2022-08-19T00:16:16;18.00;99.90
6407;DHT22;3236;51.022;6.818;2022-08-19T00:18:47;18.50;99.90
6407;DHT22;3236;51.022;6.818;2022-08-19T00:21:15;18.70;99.90
6407;DHT22;3236;51.022;6.818;2022-08-19T00:23:42;18.30;99.90
6407;DHT22;3236;51.022;6.818;2022-08-19T00:31:06;18.20;99.90
6407;DHT22;3236;51.022;6.818;2022-08-19T00:36:05;18.10;99.90
6407;DHT22;3236;51.022;6.818;2022-08-19T00:38:32;18.10;99.90
6407;DHT22;3236;51.022;6.818;2022-08-19T00:40:59;18.40;99.90
6407;DHT22;3236;51.022;6.818;2022-08-19T00:43:27;17.90;99.90
6407;DHT22;3236;51.022;6.818;2022-08-19T00:48:21;17.60;99.90
6407;DHT22;3236;51.022;6.818;2022-08-19T00:50:49;18.20;99.90
6407;DHT22;3236;51.022;6.818;2022-08-19T00:53:22;18.20;99.90
6407;DHT22;3236;51.022;6.818;2022-08-19T00:55:53;17.60;99.90
6407;DHT22;3236;51.022;6.818;2022-08-19T00:58:27;17.70;99.90
6407;DHT22;3236;51.022;6.818;2022-08-19T01:00:55;18.00;99.90
6407;DHT22;3236;51.022;6.818;2022-08-19T01:03:22;17.70;99.90
6407;DHT22;3236;51.022;6.818;2022-08-19T01:05:50;18.10;99.90
6407;DHT22;3236;51.022;6.818;2022-08-19T01:08:20;17.90;99.90
6407;DHT22;3236;51.022;6.818;2022-08-19T01:10:48;17.80;99.90
6407;DHT22;3236;51.022;6.818;2022-08-19T01:13:26;17.80;99.90
6407;DHT22;3236;51.022;6.818;2022-08-19T01:15:56;18.10;99.90
6407;DHT22;3236;51.022;6.818;2022-08-19T01:18:25;17.50;99.90
6407;DHT22;3236;51.022;6.818;2022-08-19T01:20:55;17.40;99.90
6407;DHT22;3236;51.022;6.818;2022-08-19T01:23:25;17.60;99.90
6407;DHT22;3236;51.022;6.818;2022-08-19T01:26:09;17.60;99.90
6407;DHT22;3236;51.022;6.818;2022-08-19T01:28:37;17.60;99.90
6407;DHT22;3236;51.022;6.818;2022-08-19T01:31:05;17.50;99.90
6407;DHT22;3236;51.022;6.818;2022-08-19T01:33:33;17.60;99.90
6407;DHT22;3236;51.022;6.818;2022-08-19T01:36:08;17.40;99.90
6407;DHT22;3236;51.022;6.818;2022-08-19T01:38:40;17.20;99.90
6407;DHT22;3236;51.022;6.818;2022-08-19T01:41:07;17.30;99.90
6407;DHT22;3236;51.022;6.818;2022-08-19T01:43:34;18.00;99.90
6407;DHT22;3236;51.022;6.818;2022-08-19T01:48:33;17.30;99.90
6407;DHT22;3236;51.022;6.818;2022-08-19T01:51:01;17.80;99.90
6407;DHT22;3236;51.022;6.818;2022-08-19T01:53:28;17.20;99.90
6407;DHT22;3236;51.022;6.818;2022-08-19T01:55:56;17.00;99.90
6407;DHT22;3236;51.022;6.818;2022-08-19T01:58:27;17.30;99.90
6407;DHT22;3236;51.022;6.818;2022-08-19T02:00:56;17.30;99.90
6407;DHT22;3236;51.022;6.818;2022-08-19T02:05:55;17.10;99.90
6407;DHT22;3236;51.022;6.818;2022-08-19T02:08:26;17.00;99.90
6407;DHT22;3236;51.022;6.818;2022-08-19T02:10:53;17.30;99.90
6407;DHT22;3236;51.022;6.818;2022-08-19T02:13:23;17.40;99.90
6407;DHT22;3236;51.022;6.818;2022-08-19T02:15:50;17.30;99.90
6407;DHT22;3236;51.022;6.818;2022-08-19T02:20:44;17.30;99.90
6407;DHT22;3236;51.022;6.818;2022-08-19T02:23:14;17.30;99.90
6407;DHT22;3236;51.022;6.818;2022-08-19T02:25:41;17.10;99.90
6407;DHT22;3236;51.022;6.818;2022-08-19T02:28:10;16.80;99.90
6407;DHT22;3236;51.022;6.818;2022-08-19T02:30:40;16.90;99.90
6407;DHT22;3236;51.022;6.818;2022-08-19T02:33:07;17.50;99.90
6407;DHT22;3236;51.022;6.818;2022-08-19T02:35:35;17.00;99.90
6407;DHT22;3236;51.022;6.818;2022-08-19T02:38:02;17.00;99.90
6407;DHT22;3236;51.022;6.818;2022-08-19T02:40:50;17.50;99.90
6407;DHT22;3236;51.022;6.818;2022-08-19T02:43:18;16.80;99.90
6407;DHT22;3236;51.022;6.818;2022-08-19T02:45:48;17.00;99.90
6407;DHT22;3236;51.022;6.818;2022-08-19T02:48:18;17.50;99.90
6407;DHT22;3236;51.022;6.818;2022-08-19T02:50:46;17.40;99.90
6407;DHT22;3236;51.022;6.818;2022-08-19T02:55:45;16.70;99.90
6407;DHT22;3236;51.022;6.818;2022-08-19T02:58:13;17.00;99.90
6407;DHT22;3236;51.022;6.818;2022-08-19T03:00:42;17.10;99.90
6407;DHT22;3236;51.022;6.818;2022-08-19T03:03:14;17.10;99.90
6407;DHT22;3236;51.022;6.818;2022-08-19T03:05:41;17.00;99.90
6407;DHT22;3236;51.022;6.818;2022-08-19T03:08:09;17.40;99.90
6407;DHT22;3236;51.022;6.818;2022-08-19T03:10:42;16.60;99.90
6407;DHT22;3236;51.022;6.818;2022-08-19T03:13:15;16.60;99.90
6407;DHT22;3236;51.022;6.818;2022-08-19T03:15:45;16.70;99.90
6407;DHT22;3236;51.022;6.818;2022-08-19T03:18:14;17.30;99.90
6407;DHT22;3236;51.022;6.818;2022-08-19T03:20:43;16.50;99.90
6407;DHT22;3236;51.022;6.818;2022-08-19T03:25:44;17.00;99.90
6407;DHT22;3236;51.022;6.818;2022-08-19T03:28:12;16.80;99.90
6407;DHT22;3236;51.022;6.818;2022-08-19T03:30:53;16.80;99.90
6407;DHT22;3236;51.022;6.818;2022-08-19T03:33:23;16.50;99.90
6407;DHT22;3236;51.022;6.818;2022-08-19T03:36:03;16.60;99.90
6407;DHT22;3236;51.022;6.818;2022-08-19T03:38:39;17.00;99.90
6407;DHT22;3236;51.022;6.818;2022-08-19T03:41:08;17.20;99.90
6407;DHT22;3236;51.022;6.818;2022-08-19T03:43:39;16.70;99.90
6407;DHT22;3236;51.022;6.818;2022-08-19T03:46:08;16.70;99.90
6407;DHT22;3236;51.022;6.818;2022-08-19T03:48:41;16.60;99.90
6407;DHT22;3236;51.022;6.818;2022-08-19T03:51:16;16.90;99.90
6407;DHT22;3236;51.022;6.818;2022-08-19T03:56:15;16.90;99.90
6407;DHT22;3236;51.022;6.818;2022-08-19T03:58:42;16.70;99.90
6407;DHT22;3236;51.022;6.818;2022-08-19T04:01:10;17.30;99.90
6407;DHT22;3236;51.022;6.818;2022-08-19T04:03:40;16.60;99.90
6407;DHT22;3236;51.022;6.818;2022-08-19T04:06:11;17.00;99.90
6407;DHT22;3236;51.022;6.818;2022-08-19T04:08:38;17.00;99.90
6407;DHT22;3236;51.022;6.818;2022-08-19T04:11:08;16.90;99.90
6407;DHT22;3236;51.022;6.818;2022-08-19T04:13:35;16.80;99.90
6407;DHT22;3236;51.022;6.818;2022-08-19T04:16:02;16.80;99.90
6407;DHT22;3236;51.022;6.818;2022-08-19T04:18:29;17.00;99.90
6407;DHT22;3236;51.022;6.818;2022-08-19T04:20:58;17.00;99.90
6407;DHT22;3236;51.022;6.818;2022-08-19T04:23:25;16.80;99.90
6407;DHT22;3236;51.022;6.818;2022-08-19T04:25:54;17.30;99.90
6407;DHT22;3236;51.022;6.818;2022-08-19T04:28:22;16.70;99.90
6407;DHT22;3236;51.022;6.818;2022-08-19T04:30:51;16.90;99.90
6407;DHT22;3236;51.022;6.818;2022-08-19T04:33:20;17.20;99.90
6407;DHT22;3236;51.022;6.818;2022-08-19T04:38:22;17.00;99.90
6407;DHT22;3236;51.022;6.818;2022-08-19T04:40:50;16.80;99.90
6407;DHT22;3236;51.022;6.818;2022-08-19T04:43:45;17.10;99.90
6407;DHT22;3236;51.022;6.818;2022-08-19T04:46:14;16.70;99.90
6407;DHT22;3236;51.022;6.818;2022-08-19T04:48:42;16.70;99.90
6407;DHT22;3236;51.022;6.818;2022-08-19T04:51:11;16.90;99.90
6407;DHT22;3236;51.022;6.818;2022-08-19T04:53:42;16.80;99.90
6407;DHT22;3236;51.022;6.818;2022-08-19T04:56:11;17.00;99.90
6407;DHT22;3236;51.022;6.818;2022-08-19T04:58:40;16.60;99.90
6407;DHT22;3236;51.022;6.818;2022-08-19T05:01:08;16.60;99.90
6407;DHT22;3236;51.022;6.818;2022-08-19T05:03:35;17.00;99.90
6407;DHT22;3236;51.022;6.818;2022-08-19T05:06:07;17.10;99.90
6407;DHT22;3236;51.022;6.818;2022-08-19T05:08:37;15.60;99.90
6407;DHT22;3236;51.022;6.818;2022-08-19T05:11:16;17.50;99.90
6407;DHT22;3236;51.022;6.818;2022-08-19T05:13:47;17.30;99.90
6407;DHT22;3236;51.022;6.818;2022-08-19T05:16:16;17.40;99.90
6407;DHT22;3236;51.022;6.818;2022-08-19T05:21:30;17.40;99.90
6407;DHT22;3236;51.022;6.818;2022-08-19T05:24:16;17.20;99.90
6407;DHT22;3236;51.022;6.818;2022-08-19T05:26:46;16.90;99.90
6407;DHT22;3236;51.022;6.818;2022-08-19T05:29:21;17.40;99.90
6407;DHT22;3236;51.022;6.818;2022-08-19T05:31:48;17.30;99.90
6407;DHT22;3236;51.022;6.818;2022-08-19T05:34:16;17.60;99.90
6407;DHT22;3236;51.022;6.818;2022-08-19T05:36:44;17.50;99.90
6407;DHT22;3236;51.022;6.818;2022-08-19T05:39:14;17.30;99.90
6407;DHT22;3236;51.022;6.818;2022-08-19T05:44:10;17.50;99.90
6407;DHT22;3236;51.022;6.818;2022-08-19T05:49:09;17.60;99.90
6407;DHT22;3236;51.022;6.818;2022-08-19T05:54:04;17.80;99.90
6407;DHT22;3236;51.022;6.818;2022-08-19T05:56:33;18.40;99.90
6407;DHT22;3236;51.022;6.818;2022-08-19T05:59:03;17.80;99.90
6407;DHT22;3236;51.022;6.818;2022-08-19T06:01:38;17.90;99.90
6407;DHT22;3236;51.022;6.818;2022-08-19T06:04:07;17.90;99.90
6407;DHT22;3236;51.022;6.818;2022-08-19T06:06:35;18.10;99.90
6407;DHT22;3236;51.022;6.818;2022-08-19T06:09:04;18.00;99.90
6407;DHT22;3236;51.022;6.818;2022-08-19T06:11:34;18.60;99.90
6407;DHT22;3236;51.022;6.818;2022-08-19T06:14:05;19.50;99.90
6407;DHT22;3236;51.022;6.818;2022-08-19T06:16:38;18.30;99.90
6407;DHT22;3236;51.022;6.818;2022-08-19T06:19:08;18.50;99.90
6407;DHT22;3236;51.022;6.818;2022-08-19T06:21:38;18.60;99.90
6407;DHT22;3236;51.022;6.818;2022-08-19T06:24:08;18.40;99.90
6407;DHT22;3236;51.022;6.818;2022-08-19T06:26:37;18.90;99.90
6407;DHT22;3236;51.022;6.818;2022-08-19T06:29:06;19.00;99.90
6407;DHT22;3236;51.022;6.818;2022-08-19T06:31:35;19.00;99.90
6407;DHT22;3236;51.022;6.818;2022-08-19T06:34:05;19.40;99.90
6407;DHT22;3236;51.022;6.818;2022-08-19T06:36:34;19.30;99.90
6407;DHT22;3236;51.022;6.818;2022-08-19T06:39:09;18.70;99.90
6407;DHT22;3236;51.022;6.818;2022-08-19T06:41:39;19.00;99.90
6407;DHT22;3236;51.022;6.818;2022-08-19T06:44:06;19.00;99.90
6407;DHT22;3236;51.022;6.818;2022-08-19T06:46:34;18.90;99.90
6407;DHT22;3236;51.022;6.818;2022-08-19T06:49:03;19.00;99.90
6407;DHT22;3236;51.022;6.818;2022-08-19T06:51:30;19.10;99.90
6407;DHT22;3236;51.022;6.818;2022-08-19T06:54:03;18.80;99.90
6407;DHT22;3236;51.022;6.818;2022-08-19T06:56:33;19.10;99.90
6407;DHT22;3236;51.022;6.818;2022-08-19T06:59:02;19.20;99.90
6407;DHT22;3236;51.022;6.818;2022-08-19T07:01:33;18.60;99.90
6407;DHT22;3236;51.022;6.818;2022-08-19T07:06:29;18.50;99.90
6407;DHT22;3236;51.022;6.818;2022-08-19T07:08:57;18.90;99.90
6407;DHT22;3236;51.022;6.818;2022-08-19T07:11:25;19.30;99.90
6407;DHT22;3236;51.022;6.818;2022-08-19T07:13:52;19.10;99.90
6407;DHT22;3236;51.022;6.818;2022-08-19T07:16:20;18.90;99.90
6407;DHT22;3236;51.022;6.818;2022-08-19T07:18:47;18.70;99.90
6407;DHT22;3236;51.022;6.818;2022-08-19T07:21:16;18.30;99.90
6407;DHT22;3236;51.022;6.818;2022-08-19T07:23:46;19.00;99.90
6407;DHT22;3236;51.022;6.818;2022-08-19T07:26:14;18.80;99.90
6407;DHT22;3236;51.022;6.818;2022-08-19T07:28:42;19.10;99.90
6407;DHT22;3236;51.022;6.818;2022-08-19T07:31:11;18.90;99.90
6407;DHT22;3236;51.022;6.818;2022-08-19T07:33:38;19.40;99.90
6407;DHT22;3236;51.022;6.818;2022-08-19T07:36:07;19.50;99.90
6407;DHT22;3236;51.022;6.818;2022-08-19T07:38:37;18.40;99.90
6407;DHT22;3236;51.022;6.818;2022-08-19T07:41:07;18.90;99.90
6407;DHT22;3236;51.022;6.818;2022-08-19T07:43:34;19.30;99.90
6407;DHT22;3236;51.022;6.818;2022-08-19T07:48:28;19.40;99.90
6407;DHT22;3236;51.022;6.818;2022-08-19T07:50:57;20.00;99.90
6407;DHT22;3236;51.022;6.818;2022-08-19T07:53:28;19.20;99.90
6407;DHT22;3236;51.022;6.818;2022-08-19T07:55:55;19.40;99.90
6407;DHT22;3236;51.022;6.818;2022-08-19T07:58:26;19.60;99.90
6407;DHT22;3236;51.022;6.818;2022-08-19T08:00:53;19.70;99.90
6407;DHT22;3236;51.022;6.818;2022-08-19T08:03:22;20.10;99.90
6407;DHT22;3236;51.022;6.818;2022-08-19T08:06:10;20.10;99.90
6407;DHT22;3236;51.022;6.818;2022-08-19T08:08:55;20.40;99.90
6407;DHT22;3236;51.022;6.818;2022-08-19T08:11:38;21.00;99.90
6407;DHT22;3236;51.022;6.818;2022-08-19T08:14:06;21.70;99.90
6407;DHT22;3236;51.022;6.818;2022-08-19T08:19:03;21.70;99.90
6407;DHT22;3236;51.022;6.818;2022-08-19T08:21:30;21.30;99.90
6407;DHT22;3236;51.022;6.818;2022-08-19T08:23:57;21.70;99.90
6407;DHT22;3236;51.022;6.818;2022-08-19T08:26:24;21.60;99.90
6407;DHT22;3236;51.022;6.818;2022-08-19T08:28:52;22.40;99.90
6407;DHT22;3236;51.022;6.818;2022-08-19T08:31:20;21.90;99.90
6407;DHT22;3236;51.022;6.818;2022-08-19T08:36:16;21.50;99.90
6407;DHT22;3236;51.022;6.818;2022-08-19T08:41:18;21.40;99.90
6407;DHT22;3236;51.022;6.818;2022-08-19T08:43:51;21.50;99.90
6407;DHT22;3236;51.022;6.818;2022-08-19T08:46:24;21.40;99.90
6407;DHT22;3236;51.022;6.818;2022-08-19T08:48:58;22.20;99.90
6407;DHT22;3236;51.022;6.818;2022-08-19T08:51:32;21.80;99.90
6407;DHT22;3236;51.022;6.818;2022-08-19T08:54:00;21.70;99.90
6407;DHT22;3236;51.022;6.818;2022-08-19T08:56:31;21.70;99.90
6407;DHT22;3236;51.022;6.818;2022-08-19T08:58:59;21.60;99.90
6407;DHT22;3236;51.022;6.818;2022-08-19T09:01:30;21.40;99.90
6407;DHT22;3236;51.022;6.818;2022-08-19T09:03:59;21.70;99.90
6407;DHT22;3236;51.022;6.818;2022-08-19T09:06:31;22.30;99.90
6407;DHT22;3236;51.022;6.818;2022-08-19T09:09:08;21.90;99.90
6407;DHT22;3236;51.022;6.818;2022-08-19T09:11:48;21.90;99.90
6407;DHT22;3236;51.022;6.818;2022-08-19T09:14:32;21.70;99.90
6407;DHT22;3236;51.022;6.818;2022-08-19T09:17:02;21.60;99.90
6407;DHT22;3236;51.022;6.818;2022-08-19T09:19:29;22.20;99.90
6407;DHT22;3236;51.022;6.818;2022-08-19T09:21:56;22.00;99.90
6407;DHT22;3236;51.022;6.818;2022-08-19T09:24:26;22.30;99.90
6407;DHT22;3236;51.022;6.818;2022-08-19T09:31:47;22.30;99.90
6407;DHT22;3236;51.022;6.818;2022-08-19T09:34:16;22.60;99.90
6407;DHT22;3236;51.022;6.818;2022-08-19T09:36:45;23.00;99.90
6407;DHT22;3236;51.022;6.818;2022-08-19T09:39:12;22.40;99.90
6407;DHT22;3236;51.022;6.818;2022-08-19T09:41:39;22.60;99.90
6407;DHT22;3236;51.022;6.818;2022-08-19T09:46:34;23.20;99.90
6407;DHT22;3236;51.022;6.818;2022-08-19T09:51:33;23.50;99.90
6407;DHT22;3236;51.022;6.818;2022-08-19T09:54:02;23.70;99.90
6407;DHT22;3236;51.022;6.818;2022-08-19T09:56:32;24.50;99.90
6407;DHT22;3236;51.022;6.818;2022-08-19T09:59:03;24.40;99.90
6407;DHT22;3236;51.022;6.818;2022-08-19T10:01:31;24.70;99.90
6407;DHT22;3236;51.022;6.818;2022-08-19T10:04:00;25.40;99.90
6407;DHT22;3236;51.022;6.818;2022-08-19T10:06:29;25.40;99.90
6407;DHT22;3236;51.022;6.818;2022-08-19T10:08:59;25.10;99.90
6407;DHT22;3236;51.022;6.818;2022-08-19T10:13:54;24.80;99.90
6407;DHT22;3236;51.022;6.818;2022-08-19T10:16:23;25.10;99.90
6407;DHT22;3236;51.022;6.818;2022-08-19T10:18:51;24.70;99.90
6407;DHT22;3236;51.022;6.818;2022-08-19T10:21:24;25.40;99.90
6407;DHT22;3236;51.022;6.818;2022-08-19T10:23:55;25.50;99.90
6407;DHT22;3236;51.022;6.818;2022-08-19T10:26:35;25.90;99.90
6407;DHT22;3236;51.022;6.818;2022-08-19T10:29:03;25.70;99.90
6407;DHT22;3236;51.022;6.818;2022-08-19T10:31:32;25.70;99.90
6407;DHT22;3236;51.022;6.818;2022-08-19T10:34:00;25.50;99.90
6407;DHT22;3236;51.022;6.818;2022-08-19T10:36:30;25.90;99.90
6407;DHT22;3236;51.022;6.818;2022-08-19T10:38:59;25.10;99.90
6407;DHT22;3236;51.022;6.818;2022-08-19T10:41:30;25.50;99.90
6407;DHT22;3236;51.022;6.818;2022-08-19T10:44:00;25.50;99.90
6407;DHT22;3236;51.022;6.818;2022-08-19T10:46:28;26.00;99.90
6407;DHT22;3236;51.022;6.818;2022-08-19T10:48:57;26.30;99.90
6407;DHT22;3236;51.022;6.818;2022-08-19T10:54:08;26.10;99.90
6407;DHT22;3236;51.022;6.818;2022-08-19T10:56:37;26.30;99.90
6407;DHT22;3236;51.022;6.818;2022-08-19T10:59:21;27.50;99.90
6407;DHT22;3236;51.022;6.818;2022-08-19T11:01:50;27.20;99.90
6407;DHT22;3236;51.022;6.818;2022-08-19T11:04:18;27.10;99.90
6407;DHT22;3236;51.022;6.818;2022-08-19T11:06:47;27.00;99.90
6407;DHT22;3236;51.022;6.818;2022-08-19T11:09:15;27.20;99.90
6407;DHT22;3236;51.022;6.818;2022-08-19T11:11:44;26.60;99.90
6407;DHT22;3236;51.022;6.818;2022-08-19T11:14:15;27.60;99.90
6407;DHT22;3236;51.022;6.818;2022-08-19T11:16:43;27.80;99.90
6407;DHT22;3236;51.022;6.818;2022-08-19T11:19:11;27.40;99.90
6407;DHT22;3236;51.022;6.818;2022-08-19T11:24:10;28.20;99.90
6407;DHT22;3236;51.022;6.818;2022-08-19T11:26:39;28.10;99.90
6407;DHT22;3236;51.022;6.818;2022-08-19T11:29:08;28.30;97.70
6407;DHT22;3236;51.022;6.818;2022-08-19T11:31:39;27.90;98.20
6407;DHT22;3236;51.022;6.818;2022-08-19T11:34:08;27.60;98.60
6407;DHT22;3236;51.022;6.818;2022-08-19T11:36:37;27.90;99.30
6407;DHT22;3236;51.022;6.818;2022-08-19T11:39:06;28.50;97.80
6407;DHT22;3236;51.022;6.818;2022-08-19T11:44:01;28.80;97.20
6407;DHT22;3236;51.022;6.818;2022-08-19T11:46:31;28.60;96.30
6407;DHT22;3236;51.022;6.818;2022-08-19T11:51:29;29.20;92.60
6407;DHT22;3236;51.022;6.818;2022-08-19T11:53:57;30.40;92.70
6407;DHT22;3236;51.022;6.818;2022-08-19T11:56:26;30.50;89.10
6407;DHT22;3236;51.022;6.818;2022-08-19T11:58:54;30.90;87.50
6407;DHT22;3236;51.022;6.818;2022-08-19T12:01:25;31.10;85.30
6407;DHT22;3236;51.022;6.818;2022-08-19T12:03:55;30.40;85.30
6407;DHT22;3236;51.022;6.818;2022-08-19T12:06:27;29.60;84.40
6407;DHT22;3236;51.022;6.818;2022-08-19T12:08:55;30.70;88.30
6407;DHT22;3236;51.022;6.818;2022-08-19T12:11:23;29.50;86.70
6407;DHT22;3236;51.022;6.818;2022-08-19T12:13:50;29.00;88.00
6407;DHT22;3236;51.022;6.818;2022-08-19T12:16:19;28.40;90.60
6407;DHT22;3236;51.022;6.818;2022-08-19T12:18:47;28.70;90.70
6407;DHT22;3236;51.022;6.818;2022-08-19T12:21:20;29.20;90.40
6407;DHT22;3236;51.022;6.818;2022-08-19T12:23:48;29.20;87.80
6407;DHT22;3236;51.022;6.818;2022-08-19T12:28:42;29.20;90.60
6407;DHT22;3236;51.022;6.818;2022-08-19T12:31:10;29.30;88.30
6407;DHT22;3236;51.022;6.818;2022-08-19T12:33:38;29.40;82.70
6407;DHT22;3236;51.022;6.818;2022-08-19T12:36:08;30.10;84.80
6407;DHT22;3236;51.022;6.818;2022-08-19T12:38:38;29.40;81.80
6407;DHT22;3236;51.022;6.818;2022-08-19T12:41:10;29.70;85.50
6407;DHT22;3236;51.022;6.818;2022-08-19T12:43:38;30.00;83.50
6407;DHT22;3236;51.022;6.818;2022-08-19T12:46:07;29.70;81.40
6407;DHT22;3236;51.022;6.818;2022-08-19T12:48:35;31.30;81.80
6407;DHT22;3236;51.022;6.818;2022-08-19T12:51:06;30.60;79.00
6407;DHT22;3236;51.022;6.818;2022-08-19T12:53:33;31.60;77.20
6407;DHT22;3236;51.022;6.818;2022-08-19T12:56:02;30.60;78.90
6407;DHT22;3236;51.022;6.818;2022-08-19T12:58:33;30.50;78.40
6407;DHT22;3236;51.022;6.818;2022-08-19T13:01:06;29.70;78.90
6407;DHT22;3236;51.022;6.818;2022-08-19T13:03:33;29.60;79.30
6407;DHT22;3236;51.022;6.818;2022-08-19T13:06:00;29.70;78.50
6407;DHT22;3236;51.022;6.818;2022-08-19T13:08:27;30.90;75.30
6407;DHT22;3236;51.022;6.818;2022-08-19T13:10:54;29.10;75.60
6407;DHT22;3236;51.022;6.818;2022-08-19T13:13:23;29.40;74.30
6407;DHT22;3236;51.022;6.818;2022-08-19T13:15:51;28.70;77.10
6407;DHT22;3236;51.022;6.818;2022-08-19T13:18:18;29.00;76.80
6407;DHT22;3236;51.022;6.818;2022-08-19T13:20:45;29.30;75.90
6407;DHT22;3236;51.022;6.818;2022-08-19T13:25:39;30.00;73.60
6407;DHT22;3236;51.022;6.818;2022-08-19T13:30:34;30.80;70.60
6407;DHT22;3236;51.022;6.818;2022-08-19T13:33:19;30.60;70.10
6407;DHT22;3236;51.022;6.818;2022-08-19T13:35:48;31.00;68.30
6407;DHT22;3236;51.022;6.818;2022-08-19T13:38:17;31.40;70.40
6407;DHT22;3236;51.022;6.818;2022-08-19T13:40:45;30.70;70.90
6407;DHT22;3236;51.022;6.818;2022-08-19T13:43:13;30.80;69.50
6407;DHT22;3236;51.022;6.818;2022-08-19T13:45:42;30.40;68.30
6407;DHT22;3236;51.022;6.818;2022-08-19T13:48:09;30.00;70.50
6407;DHT22;3236;51.022;6.818;2022-08-19T13:50:39;29.60;71.00
6407;DHT22;3236;51.022;6.818;2022-08-19T13:53:08;30.90;69.60
6407;DHT22;3236;51.022;6.818;2022-08-19T14:00:35;30.60;68.50
6407;DHT22;3236;51.022;6.818;2022-08-19T14:03:04;31.10;69.20
6407;DHT22;3236;51.022;6.818;2022-08-19T14:05:32;31.00;68.90
6407;DHT22;3236;51.022;6.818;2022-08-19T14:07:59;31.20;66.90
6407;DHT22;3236;51.022;6.818;2022-08-19T14:10:27;31.70;66.00
6407;DHT22;3236;51.022;6.818;2022-08-19T14:12:57;32.10;65.30
6407;DHT22;3236;51.022;6.818;2022-08-19T14:15:25;32.60;64.60
6407;DHT22;3236;51.022;6.818;2022-08-19T14:20:22;31.30;65.60
6407;DHT22;3236;51.022;6.818;2022-08-19T14:22:49;31.90;65.50
6407;DHT22;3236;51.022;6.818;2022-08-19T14:25:19;31.10;64.60
6407;DHT22;3236;51.022;6.818;2022-08-19T14:27:49;29.40;65.00
6407;DHT22;3236;51.022;6.818;2022-08-19T14:30:19;30.80;66.20
6407;DHT22;3236;51.022;6.818;2022-08-19T14:32:46;31.20;64.00
6407;DHT22;3236;51.022;6.818;2022-08-19T14:35:14;31.60;63.00
6407;DHT22;3236;51.022;6.818;2022-08-19T14:37:44;31.70;59.60
6407;DHT22;3236;51.022;6.818;2022-08-19T14:40:12;31.80;59.40
6407;DHT22;3236;51.022;6.818;2022-08-19T14:45:07;32.40;61.70
6407;DHT22;3236;51.022;6.818;2022-08-19T14:47:34;31.90;59.50
6407;DHT22;3236;51.022;6.818;2022-08-19T14:50:02;31.90;58.20
6407;DHT22;3236;51.022;6.818;2022-08-19T14:54:57;31.20;59.90
6407;DHT22;3236;51.022;6.818;2022-08-19T14:57:24;31.70;60.70
6407;DHT22;3236;51.022;6.818;2022-08-19T14:59:52;32.80;59.40
6407;DHT22;3236;51.022;6.818;2022-08-19T15:02:19;32.80;58.00
6407;DHT22;3236;51.022;6.818;2022-08-19T15:04:46;32.70;58.70
6407;DHT22;3236;51.022;6.818;2022-08-19T15:07:12;32.30;59.90
6407;DHT22;3236;51.022;6.818;2022-08-19T15:09:39;33.40;59.50
6407;DHT22;3236;51.022;6.818;2022-08-19T15:12:08;34.40;58.40
6407;DHT22;3236;51.022;6.818;2022-08-19T15:14:40;33.20;56.60
6407;DHT22;3236;51.022;6.818;2022-08-19T15:17:10;31.30;57.60
6407;DHT22;3236;51.022;6.818;2022-08-19T15:19:37;31.00;60.20
6407;DHT22;3236;51.022;6.818;2022-08-19T15:22:04;29.50;61.20
6407;DHT22;3236;51.022;6.818;2022-08-19T15:24:34;29.30;62.20
6407;DHT22;3236;51.022;6.818;2022-08-19T15:27:07;29.20;63.80
6407;DHT22;3236;51.022;6.818;2022-08-19T15:29:34;28.60;63.50
6407;DHT22;3236;51.022;6.818;2022-08-19T15:32:02;28.50;67.20
6407;DHT22;3236;51.022;6.818;2022-08-19T15:34:31;28.40;67.80
6407;DHT22;3236;51.022;6.818;2022-08-19T15:36:58;27.80;66.50
6407;DHT22;3236;51.022;6.818;2022-08-19T15:39:28;27.80;69.70
6407;DHT22;3236;51.022;6.818;2022-08-19T15:41:58;28.70;69.50
6407;DHT22;3236;51.022;6.818;2022-08-19T15:44:28;29.10;70.70
6407;DHT22;3236;51.022;6.818;2022-08-19T15:49:23;27.00;72.80
6407;DHT22;3236;51.022;6.818;2022-08-19T15:51:52;26.90;74.90
6407;DHT22;3236;51.022;6.818;2022-08-19T15:56:51;27.50;74.80
6407;DHT22;3236;51.022;6.818;2022-08-19T16:02:24;28.60;74.20
6407;DHT22;3236;51.022;6.818;2022-08-19T16:05:11;29.00;73.40
6407;DHT22;3236;51.022;6.818;2022-08-19T16:07:56;29.20;72.80
6407;DHT22;3236;51.022;6.818;2022-08-19T16:10:25;28.50;74.20
6407;DHT22;3236;51.022;6.818;2022-08-19T16:12:54;27.50;75.30
6407;DHT22;3236;51.022;6.818;2022-08-19T16:15:23;27.60;73.90
6407;DHT22;3236;51.022;6.818;2022-08-19T16:17:52;26.90;76.90
6407;DHT22;3236;51.022;6.818;2022-08-19T16:20:26;27.10;76.70
6407;DHT22;3236;51.022;6.818;2022-08-19T16:22:53;26.70;80.20
6407;DHT22;3236;51.022;6.818;2022-08-19T16:25:21;26.50;81.70
6407;DHT22;3236;51.022;6.818;2022-08-19T16:27:52;26.30;86.60
6407;DHT22;3236;51.022;6.818;2022-08-19T16:30:19;26.40;91.60
6407;DHT22;3236;51.022;6.818;2022-08-19T16:32:47;26.30;93.30
6407;DHT22;3236;51.022;6.818;2022-08-19T16:35:14;26.10;95.10
6407;DHT22;3236;51.022;6.818;2022-08-19T16:37:41;26.10;97.70
6407;DHT22;3236;51.022;6.818;2022-08-19T16:40:11;26.20;99.60
6407;DHT22;3236;51.022;6.818;2022-08-19T16:42:38;26.60;99.90
6407;DHT22;3236;51.022;6.818;2022-08-19T16:45:06;26.50;99.90
6407;DHT22;3236;51.022;6.818;2022-08-19T16:47:34;26.30;99.90
6407;DHT22;3236;51.022;6.818;2022-08-19T16:50:03;25.70;99.90
6407;DHT22;3236;51.022;6.818;2022-08-19T16:52:32;25.80;99.90
6407;DHT22;3236;51.022;6.818;2022-08-19T16:55:01;25.20;99.90
6407;DHT22;3236;51.022;6.818;2022-08-19T16:57:28;25.20;99.90
6407;DHT22;3236;51.022;6.818;2022-08-19T17:02:24;25.50;99.90
6407;DHT22;3236;51.022;6.818;2022-08-19T17:04:52;25.30;99.90
6407;DHT22;3236;51.022;6.818;2022-08-19T17:07:21;25.20;99.90
6407;DHT22;3236;51.022;6.818;2022-08-19T17:09:48;24.70;99.90
6407;DHT22;3236;51.022;6.818;2022-08-19T17:12:15;24.70;99.90
6407;DHT22;3236;51.022;6.818;2022-08-19T17:17:09;24.80;99.90
6407;DHT22;3236;51.022;6.818;2022-08-19T17:19:38;24.90;99.90
6407;DHT22;3236;51.022;6.818;2022-08-19T17:22:06;24.70;99.90
6407;DHT22;3236;51.022;6.818;2022-08-19T17:24:39;25.20;99.90
6407;DHT22;3236;51.022;6.818;2022-08-19T17:27:09;25.50;99.90
6407;DHT22;3236;51.022;6.818;2022-08-19T17:32:04;25.60;99.90
6407;DHT22;3236;51.022;6.818;2022-08-19T17:34:32;25.50;99.90
6407;DHT22;3236;51.022;6.818;2022-08-19T17:36:59;25.00;99.90
6407;DHT22;3236;51.022;6.818;2022-08-19T17:39:26;25.30;99.90
6407;DHT22;3236;51.022;6.818;2022-08-19T17:41:54;25.10;99.90
6407;DHT22;3236;51.022;6.818;2022-08-19T17:44:21;24.80;99.90
6407;DHT22;3236;51.022;6.818;2022-08-19T17:46:48;25.00;99.90
6407;DHT22;3236;51.022;6.818;2022-08-19T17:49:17;25.30;99.90
6407;DHT22;3236;51.022;6.818;2022-08-19T17:51:45;25.60;99.90
6407;DHT22;3236;51.022;6.818;2022-08-19T17:59:15;25.30;99.90
6407;DHT22;3236;51.022;6.818;2022-08-19T18:01:43;24.90;99.90
6407;DHT22;3236;51.022;6.818;2022-08-19T18:04:10;24.90;99.90
6407;DHT22;3236;51.022;6.818;2022-08-19T18:09:06;25.10;99.90
6407;DHT22;3236;51.022;6.818;2022-08-19T18:11:34;24.60;99.90
6407;DHT22;3236;51.022;6.818;2022-08-19T18:14:01;24.10;99.90
6407;DHT22;3236;51.022;6.818;2022-08-19T18:16:29;24.40;99.90
6407;DHT22;3236;51.022;6.818;2022-08-19T18:21:24;24.30;99.90